Hovedside
METAR-TAF:

METAR-TAF

Lufthavner :

Tahiti internasjonale lufthavn

Tahiti, Fransk Polynesia

breddegrad: 17-33S, lengdegrad: 149-37W, høyde over havet: 2 m

Gjeldene værobservasjon

Denne rapporten ble laget for 29 minutter siden, klokken 09:00 UTC
Vind 4 kt fra Øst-sørøst, skiftende mellom Øst-nordøst og Sørøst
Temperatur 24°C
Luftfuktighet 78%
Trykk 1017 hPa
Sikt 10 km eller mer
Få skyer i en høyde av 2000 ft
Spredte skyer i en høyde av 10000 ft

METAR: NTAA 190900Z 11004KT 060V130 9999 FEW020 SCT100 24/20 Q1017 NOSIG

Tid: 23:29 (09:29 UTC)

Varsel

Denne rapporten ble laget for 4 timer og 29 minutter siden, klokken 05:00 UTC
Varsel gyldig fra 19. klokken 06 UTC til 20. klokken 12 UTC
Vind 5 kt fra skiftende retning
Sikt 10 km eller mer
Få skyer i en høyde av 2300 ft
Spredte skyer i en høyde av 5000 ft

TAF: NTAA 190500Z 1906/2012 VRB05KT 9999 FEW023 SCT050

Værobservasjoner og værvarsel for over 4000 flyplasser (METAR- og TAF-rapporter).

Tilgjengelige stasjoner er representert av de røde og gule prikkene på kartet.

Hold musepekeren over prikken for å se navnet på stasjonen.

Klikk så for å se værobservasjoner og -varsler.

For å forandre kartet kan du klikke på den grønne knappen med svart kryss for å zoome inn, på den grønne knappen med strek for å zoome ut, eller på de grønne pilene for å se tilstøtende kart.


METAR-TAF: